• Join FlightAware (Why Join?)
  • Login
  • US Flag 
12:15AM EST


 

Airport Tracker/Info


-or-


 

Live Flight TrackerFlight Track Log ✈ N502QS ✈ 21-Aug-2013 ✈ KSNA - KLAS

Flight Track Log - Related Links

Times and Time Zones

All times are in EDT time to prevent confusion due to time zone crossing. See the N502QS flight status page for this flight to view local times or setup timezone preferences in your user account.

Time Position Orientation Groundspeed Altitude Reporting Facility
EDT Latitude Longitude Course Direction KTS MPH feet Rate Location/Type
03:31PM 33.6333 -117.9000 40° Northeast 197 227 3,000  Level Southern California TRACON
03:32PM 33.5667 -117.9000 180° South 213 245 6,200 2,408 Climbing Southern California TRACON
03:33PM 33.5494 -117.9956 258° West 235 270 8,700 2,522 Climbing Los Angeles Center
03:35PM 33.5697 -118.0919 284° West 285 328 12,000 3,264 Climbing Los Angeles Center
03:36PM 33.6631 -118.1039 354° North 354 407 15,500 2,628 Climbing Los Angeles Center
03:37PM 33.8556 -117.9611 40° Northeast  Level FlightAware Approximate
03:37PM 33.7917 -118.0483 20° North 409 471 18,000  Level Los Angeles Center
03:38PM 33.9125 -117.9417 36° Northeast 446 513 20,800 2,592 Climbing Los Angeles Center
03:39PM 34.0144 -117.8472 38° Northeast 458 527 23,400 2,448 Climbing Los Angeles Center
03:40PM 34.1161 -117.7406 41° Northeast 481 554 25,900 1,742 Climbing Los Angeles Center
03:41PM 34.2089 -117.6136 49° Northeast 501 577 27,000 532 Climbing Los Angeles Center
03:42PM 34.2958 -117.4931 49° Northeast 484 557 27,000  Level Los Angeles Center
03:43PM 34.3839 -117.3747 48° Northeast 475 547 27,000  Level Los Angeles Center
03:44PM 34.4733 -117.2494 49° Northeast 475 547 27,000  Level Los Angeles Center
03:45PM 34.5775 -117.1078 48° Northeast 473 544 27,000  Level Los Angeles Center
03:46PM 34.6619 -116.9900 49° Northeast 468 539 27,000  Level Los Angeles Center
03:47PM 34.7486 -116.8714 48° Northeast 471 542 27,000 -332 Level Los Angeles Center
03:49PM 34.8597 -116.7685 51° Northeast  Level FlightAware Approximate
03:49PM 34.9375 -116.6103 51° Northeast 470 541 25,900  Level Los Angeles Center
03:50PM 35.0444 -116.4725 47° Northeast 468 539 24,700 -919 Descending Los Angeles Center
03:52PM 35.1311 -116.3625 46° Northeast 457 526 24,000 -435 Descending Los Angeles Center
03:53PM 35.2186 -116.2550 45° Northeast 450 518 23,800 -1,113 Descending Los Angeles Center
03:54PM 35.3039 -116.1456 46° Northeast 446 513 21,700 -1,984 Descending Los Angeles Center
03:55PM 35.3867 -116.0417 46° Northeast 429 494 19,700 -1,883 Descending Los Angeles Center
03:56PM 35.4825 -115.9186 46° Northeast 419 482 17,400 -2,015 Descending Los Angeles Center
03:57PM 35.5672 -115.8128 45° Northeast 392 451 15,300 -1,790 Descending Los Angeles Center
03:58PM 35.6397 -115.7225 45° Northeast 362 417 13,700 -1,053 Descending Los Angeles Center
03:59PM 35.7133 -115.6286 46° Northeast 326 375 13,000 -336 Descending Los Angeles Center
04:00PM 35.7889 -115.5736 31° Northeast 326 375 13,000  Level Los Angeles Center
04:01PM 35.8769 -115.5686 North 320 368 13,000  Level Los Angeles Center
04:02PM 35.9625 -115.5428 14° North 298 343 13,000 -410 Level Los Angeles Center
04:03PM 36.0003 -115.4669 58° Northeast 286 329 12,200 -992 Descending Los Angeles Center
04:04PM 36.0286 -115.3672 71° East 282 325 11,000 -1,172 Descending Los Angeles Center
04:05PM 36.0217 -115.2658 95° East 278 320 9,700 -1,082 Descending Los Angeles Center
04:06PM 36.0156 -115.1775 95° East 259 298 8,800 -722 Descending Los Angeles Center
04:07PM 36.0117 -115.0911 93° East 202 232 8,100 -750 Descending Los Angeles Center
04:08PM 36.0511 -115.0542 37° Northeast 206 237 7,200 -1,293 Descending Los Angeles Center
04:09PM 36.1014 -115.0267 24° Northeast 202 232 5,600 -1,409 Descending Los Angeles Center
04:10PM 36.1314 -115.0647 314° West 176 203 4,500 -1,148 Descending Los Angeles Center
04:11PM 36.1439 -115.1219 285° West 158 182 3,400 -1,033 Descending Los Angeles Center
04:12PM 36.1133 -115.1506 217° Southwest 132 152 2,400 -984 Descending Los Angeles Center
04:15PM 36.0801 -115.1523 270° West  Level Estimated